createdAt,value
2023-05-02T00:02:14.780Z,1.90
2023-05-02T00:04:42.733Z,1.65
2023-05-02T00:07:11.564Z,1.80
2023-05-02T00:09:39.000Z,1.77
2023-05-02T00:12:06.421Z,2.03
2023-05-02T00:14:35.834Z,2.00
2023-05-02T00:17:04.012Z,1.50
2023-05-02T00:19:31.728Z,1.75
2023-05-02T00:21:58.888Z,1.70
2023-05-02T00:24:27.389Z,1.55
2023-05-02T00:26:55.256Z,1.42
2023-05-02T00:29:22.776Z,1.40
2023-05-02T00:31:50.337Z,1.52
2023-05-02T00:34:18.062Z,1.73
2023-05-02T00:36:45.383Z,1.20
2023-05-02T00:39:13.043Z,1.33
2023-05-02T00:41:42.447Z,1.52
2023-05-02T00:44:09.738Z,1.52
2023-05-02T00:46:40.534Z,1.20
2023-05-02T00:49:08.204Z,1.65
2023-05-02T00:51:35.664Z,1.35
2023-05-02T00:54:03.579Z,1.42
2023-05-02T00:56:31.608Z,1.50
2023-05-02T00:59:05.829Z,1.40
2023-05-02T01:01:54.274Z,1.60
2023-05-02T01:04:43.179Z,1.33
2023-05-02T01:07:20.530Z,1.40
2023-05-02T01:09:59.932Z,1.40
2023-05-02T01:12:48.776Z,1.70
2023-05-02T01:15:19.396Z,1.50
2023-05-02T01:17:49.901Z,1.45
2023-05-02T01:20:21.056Z,1.27
2023-05-02T01:22:49.079Z,1.42
2023-05-02T01:25:41.625Z,1.38
2023-05-02T01:28:29.236Z,1.40
2023-05-02T01:30:57.387Z,1.38
2023-05-02T01:33:27.582Z,1.70
2023-05-02T01:35:56.243Z,1.60
2023-05-02T01:38:25.586Z,1.70
2023-05-02T01:40:54.168Z,1.40
2023-05-02T01:43:25.646Z,1.55
2023-05-02T01:45:54.434Z,1.50
2023-05-02T01:48:24.085Z,1.35
2023-05-02T01:50:52.551Z,2.13
2023-05-02T01:53:25.564Z,1.83
2023-05-02T01:55:54.979Z,1.60
2023-05-02T01:58:23.968Z,1.50
2023-05-02T02:00:51.836Z,1.52
2023-05-02T02:03:20.168Z,1.42
2023-05-02T02:05:49.784Z,1.50
2023-05-02T02:08:16.914Z,1.05
2023-05-02T02:10:50.310Z,1.80
2023-05-02T02:13:26.697Z,1.42
2023-05-02T02:16:02.263Z,1.60
2023-05-02T02:18:33.385Z,1.73
2023-05-02T02:21:01.313Z,1.85
2023-05-02T02:23:30.721Z,1.60
2023-05-02T02:25:59.116Z,1.65
2023-05-02T02:28:27.198Z,1.70
2023-05-02T02:30:55.175Z,1.40
2023-05-02T02:33:28.232Z,1.73
2023-05-02T02:36:06.560Z,1.80
2023-05-02T02:38:47.414Z,2.22
2023-05-02T02:41:18.729Z,1.40
2023-05-02T02:44:04.885Z,1.50
2023-05-02T02:47:07.918Z,1.40
2023-05-02T02:49:47.385Z,1.15
2023-05-02T02:52:48.552Z,1.73
2023-05-02T02:55:44.058Z,1.80
2023-05-02T02:58:33.444Z,1.33
2023-05-02T03:01:03.686Z,1.58
2023-05-02T03:03:33.488Z,1.40
2023-05-02T03:06:01.587Z,1.98
2023-05-02T03:08:38.698Z,1.85
2023-05-02T03:11:06.171Z,2.20
2023-05-02T03:13:33.624Z,1.85
2023-05-02T03:16:20.248Z,1.95
2023-05-02T03:18:48.258Z,1.70
2023-05-02T03:21:15.748Z,2.17
2023-05-02T03:23:43.093Z,1.83
2023-05-02T03:26:10.997Z,2.10
2023-05-02T03:28:38.562Z,1.95
2023-05-02T03:31:06.051Z,2.35
2023-05-02T03:33:33.463Z,2.08
2023-05-02T03:36:01.012Z,2.00
2023-05-02T03:38:30.765Z,2.60
2023-05-02T03:40:58.703Z,2.47
2023-05-02T03:43:26.135Z,1.92
2023-05-02T03:45:53.231Z,2.13
2023-05-02T03:48:20.426Z,2.13
2023-05-02T03:50:48.351Z,2.17
2023-05-02T03:53:16.400Z,2.45
2023-05-02T03:55:43.981Z,2.33
2023-05-02T03:58:11.652Z,2.08
2023-05-02T04:00:39.006Z,2.40
2023-05-02T04:03:06.464Z,2.10
2023-05-02T04:05:33.753Z,1.98
2023-05-02T04:08:01.955Z,1.88
2023-05-02T04:10:32.754Z,2.05
2023-05-02T04:13:03.346Z,2.17
2023-05-02T04:15:34.341Z,2.28
2023-05-02T04:18:01.588Z,1.95
2023-05-02T04:20:29.816Z,2.60
2023-05-02T04:22:57.176Z,2.75
2023-05-02T04:25:24.202Z,2.60
2023-05-02T04:27:51.717Z,2.72
2023-05-02T04:30:19.216Z,2.65
2023-05-02T04:32:47.534Z,2.75
2023-05-02T04:35:15.915Z,2.35
2023-05-02T04:37:43.443Z,2.50
2023-05-02T04:40:14.600Z,3.03
2023-05-02T04:42:42.001Z,3.40
2023-05-02T04:45:09.812Z,3.38
2023-05-02T04:47:36.981Z,2.40
2023-05-02T04:50:04.480Z,2.83
2023-05-02T04:52:31.932Z,3.53
2023-05-02T04:54:59.619Z,2.80
2023-05-02T04:57:26.911Z,2.47
2023-05-02T04:59:54.795Z,2.33
2023-05-02T05:02:23.658Z,2.90
2023-05-02T05:04:52.008Z,2.70
2023-05-02T05:07:19.759Z,2.88
2023-05-02T05:09:47.496Z,1.88
2023-05-02T05:12:14.870Z,3.13
2023-05-02T05:14:45.599Z,2.42
2023-05-02T05:17:13.870Z,1.95
2023-05-02T05:19:41.244Z,1.90
2023-05-02T05:22:10.101Z,2.25
2023-05-02T05:24:37.146Z,2.58
2023-05-02T05:27:04.306Z,2.53
2023-05-02T05:29:33.335Z,2.45
2023-05-02T05:32:00.544Z,1.90
2023-05-02T05:34:27.947Z,2.08
2023-05-02T05:36:55.689Z,2.35
2023-05-02T05:39:23.249Z,2.13
2023-05-02T05:41:50.301Z,2.25
2023-05-02T05:44:17.789Z,2.40
2023-05-02T05:46:44.787Z,2.65
2023-05-02T05:49:12.821Z,2.03
2023-05-02T05:51:40.192Z,2.05
2023-05-02T05:54:07.828Z,2.97
2023-05-02T05:56:35.439Z,2.60
2023-05-02T06:01:45.978Z,3.17
2023-05-02T06:04:13.337Z,2.75
2023-05-02T06:06:40.965Z,2.20
2023-05-02T06:09:08.718Z,2.40
2023-05-02T06:11:37.895Z,2.85
2023-05-02T06:14:05.252Z,3.40
2023-05-02T06:16:33.579Z,3.17
2023-05-02T06:19:01.181Z,3.25
2023-05-02T06:21:30.685Z,3.10
2023-05-02T06:23:58.106Z,2.63
2023-05-02T06:26:25.794Z,2.72
2023-05-02T06:28:54.572Z,2.60
2023-05-02T06:31:21.936Z,2.45
2023-05-02T06:33:49.620Z,2.75
2023-05-02T06:36:17.046Z,2.78
2023-05-02T06:38:44.414Z,3.10
2023-05-02T06:41:18.470Z,3.00
2023-05-02T06:43:45.794Z,2.95
2023-05-02T06:46:13.383Z,2.80
2023-05-02T06:48:40.544Z,3.13
2023-05-02T06:51:07.764Z,2.85
2023-05-02T06:53:35.172Z,2.42
2023-05-02T06:56:05.955Z,2.88
2023-05-02T06:58:34.068Z,2.40
2023-05-02T07:01:01.516Z,2.53
2023-05-02T07:03:29.121Z,3.58
2023-05-02T07:05:56.594Z,2.35
2023-05-02T07:08:26.216Z,2.67
2023-05-02T07:10:53.560Z,3.13
2023-05-02T07:13:21.408Z,2.58
2023-05-02T07:15:48.852Z,2.83
2023-05-02T07:18:16.318Z,2.92
2023-05-02T07:20:43.602Z,2.97
2023-05-02T07:23:10.917Z,2.60
2023-05-02T07:25:38.195Z,2.83
2023-05-02T07:28:05.980Z,2.65
2023-05-02T07:30:33.604Z,2.00
2023-05-02T07:33:01.310Z,2.40
2023-05-02T07:35:28.514Z,2.47
2023-05-02T07:37:56.983Z,2.80
2023-05-02T07:40:27.050Z,2.72
2023-05-02T07:45:22.236Z,2.50
2023-05-02T07:47:49.386Z,2.17
2023-05-02T07:50:17.272Z,2.35
2023-05-02T07:52:44.799Z,2.17
2023-05-02T07:55:12.468Z,1.90
2023-05-02T07:57:40.397Z,2.30
2023-05-02T08:00:10.475Z,2.33
2023-05-02T08:02:38.114Z,2.28
2023-05-02T08:05:05.855Z,2.55
2023-05-02T08:07:37.050Z,2.45
2023-05-02T08:10:06.083Z,2.90
2023-05-02T08:12:37.930Z,2.67
2023-05-02T08:15:10.781Z,2.42
2023-05-02T08:17:38.392Z,2.60
2023-05-02T08:20:06.334Z,2.70
2023-05-02T08:22:33.480Z,2.53
2023-05-02T08:25:00.713Z,2.72
2023-05-02T08:27:28.063Z,2.60
2023-05-02T08:29:56.772Z,2.72
2023-05-02T08:32:25.757Z,2.65
2023-05-02T08:34:59.557Z,2.85
2023-05-02T08:37:27.305Z,2.63
2023-05-02T08:39:54.824Z,2.78
2023-05-02T08:42:22.934Z,2.60
2023-05-02T08:44:50.307Z,2.60
2023-05-02T08:47:19.726Z,2.20
2023-05-02T08:49:47.398Z,2.40
2023-05-02T08:52:15.941Z,2.47
2023-05-02T08:54:45.064Z,1.98
2023-05-02T08:57:12.243Z,2.38
2023-05-02T08:59:39.754Z,2.30
2023-05-02T09:02:36.663Z,3.15
2023-05-02T09:05:08.125Z,2.67
2023-05-02T09:07:47.302Z,2.33
2023-05-02T09:10:15.128Z,2.67
2023-05-02T09:12:42.794Z,2.40
2023-05-02T09:15:18.354Z,2.22
2023-05-02T09:17:48.940Z,2.40
2023-05-02T09:20:17.216Z,2.53
2023-05-02T09:22:52.221Z,3.00
2023-05-02T09:25:23.130Z,3.05
2023-05-02T09:27:52.428Z,3.13
2023-05-02T09:30:22.246Z,2.78
2023-05-02T09:32:54.271Z,3.55
2023-05-02T09:35:25.026Z,2.75
2023-05-02T09:37:56.819Z,2.67
2023-05-02T09:40:24.856Z,3.58
2023-05-02T09:42:53.057Z,3.45
2023-05-02T09:45:24.680Z,3.38
2023-05-02T09:47:54.267Z,3.38
2023-05-02T09:50:38.093Z,3.35
2023-05-02T09:53:07.680Z,3.85
2023-05-02T09:55:34.982Z,3.55
2023-05-02T09:58:02.957Z,3.25
2023-05-02T10:00:44.440Z,3.42
2023-05-02T10:03:16.742Z,3.30
2023-05-02T10:05:47.999Z,2.45
2023-05-02T10:08:19.037Z,2.65
2023-05-02T10:10:53.452Z,2.85
2023-05-02T10:13:23.041Z,2.97
2023-05-02T10:15:57.777Z,1.98
2023-05-02T10:18:29.333Z,2.85
2023-05-02T10:21:05.005Z,3.10
2023-05-02T10:23:34.807Z,2.67
2023-05-02T10:26:02.444Z,3.08
2023-05-02T10:28:30.824Z,3.30
2023-05-02T10:31:00.480Z,3.15
2023-05-02T10:33:31.980Z,2.65
2023-05-02T10:35:59.440Z,2.90
2023-05-02T10:38:27.079Z,3.30
2023-05-02T10:40:58.952Z,2.65
2023-05-02T10:43:29.203Z,3.30
2023-05-02T10:45:56.967Z,2.47
2023-05-02T10:48:26.181Z,3.15
2023-05-02T10:51:02.084Z,2.70
2023-05-02T10:53:40.396Z,3.42
2023-05-02T10:56:21.851Z,2.65
2023-05-02T10:58:52.203Z,3.22
2023-05-02T11:01:29.220Z,3.10
2023-05-02T11:04:07.685Z,2.83
2023-05-02T11:07:14.970Z,2.80
2023-05-02T11:09:41.951Z,2.38
2023-05-02T11:12:09.724Z,2.67
2023-05-02T11:14:39.933Z,2.58
2023-05-02T11:17:08.727Z,2.55
2023-05-02T11:19:39.075Z,2.63
2023-05-02T11:22:22.044Z,2.60
2023-05-02T11:24:50.556Z,2.60
2023-05-02T11:27:30.366Z,2.72
2023-05-02T11:30:04.031Z,3.10
2023-05-02T11:32:51.026Z,2.75
2023-05-02T11:35:19.841Z,2.40
2023-05-02T11:38:01.801Z,1.90
2023-05-02T11:42:59.322Z,3.15
2023-05-02T11:45:36.568Z,2.30
2023-05-02T11:48:07.173Z,2.53
2023-05-02T11:50:55.928Z,2.35
2023-05-02T11:53:25.863Z,2.28
2023-05-02T11:55:56.410Z,2.65
2023-05-02T11:58:29.999Z,2.28
2023-05-02T12:00:57.839Z,2.17
2023-05-02T12:03:33.101Z,2.80
2023-05-02T12:06:12.786Z,3.00
2023-05-02T12:08:41.308Z,2.28
2023-05-02T12:11:09.386Z,2.72
2023-05-02T12:13:56.301Z,2.30
2023-05-02T12:16:23.737Z,2.55
2023-05-02T12:18:51.407Z,2.58
2023-05-02T12:21:19.410Z,2.22
2023-05-02T12:23:47.448Z,2.55
2023-05-02T12:26:20.011Z,2.53
2023-05-02T12:28:51.746Z,2.75
2023-05-02T12:31:20.069Z,2.58
2023-05-02T12:33:50.398Z,1.55
2023-05-02T12:36:21.882Z,2.80
2023-05-02T12:38:55.222Z,1.98
2023-05-02T12:41:34.817Z,2.30
2023-05-02T12:44:02.325Z,2.13
2023-05-02T12:46:30.237Z,2.15
2023-05-02T12:49:09.892Z,2.15
2023-05-02T12:51:40.800Z,2.00
2023-05-02T12:54:08.055Z,1.77
2023-05-02T12:56:41.124Z,1.50
2023-05-02T12:59:08.618Z,1.98
2023-05-02T13:01:36.372Z,2.03
2023-05-02T13:04:04.706Z,2.30
2023-05-02T13:06:32.486Z,2.00
2023-05-02T13:09:00.997Z,1.30
2023-05-02T13:11:28.415Z,2.17
2023-05-02T13:13:56.705Z,1.83
2023-05-02T13:16:24.798Z,1.85
2023-05-02T13:18:52.379Z,1.67
2023-05-02T13:21:19.835Z,2.20
2023-05-02T13:23:51.241Z,1.88
2023-05-02T13:26:18.896Z,2.17
2023-05-02T13:28:46.542Z,2.08
2023-05-02T13:31:13.876Z,1.70
2023-05-02T13:33:41.501Z,1.48
2023-05-02T13:36:08.932Z,1.70
2023-05-02T13:38:36.802Z,1.70
2023-05-02T13:41:04.382Z,2.40
2023-05-02T13:43:31.514Z,1.77
2023-05-02T13:45:59.391Z,2.10
2023-05-02T13:48:27.030Z,1.50
2023-05-02T13:50:54.311Z,2.03
2023-05-02T13:53:21.526Z,2.28
2023-05-02T13:55:49.310Z,2.17
2023-05-02T13:58:16.545Z,1.90
2023-05-02T14:00:44.113Z,2.38
2023-05-02T14:03:11.546Z,1.88
2023-05-02T14:05:43.682Z,1.70
2023-05-02T14:08:12.060Z,2.88
2023-05-02T14:10:39.610Z,2.20
2023-05-02T14:13:07.211Z,2.80
2023-05-02T14:15:34.397Z,1.58
2023-05-02T14:18:01.866Z,1.75
2023-05-02T14:20:29.637Z,2.20
2023-05-02T14:22:57.131Z,2.15
2023-05-02T14:25:24.512Z,1.98
2023-05-02T14:27:51.654Z,1.80
2023-05-02T14:30:18.998Z,1.58
2023-05-02T14:32:46.404Z,1.30
2023-05-02T14:35:13.681Z,2.00
2023-05-02T14:37:40.912Z,1.60
2023-05-02T14:40:09.297Z,1.58
2023-05-02T14:42:36.310Z,1.30
2023-05-02T14:45:07.562Z,1.48
2023-05-02T14:47:35.139Z,1.63
2023-05-02T14:50:03.958Z,1.20
2023-05-02T14:52:31.507Z,1.20
2023-05-02T14:55:03.131Z,1.27
2023-05-02T14:57:30.543Z,1.20
2023-05-02T14:59:57.819Z,1.10
2023-05-02T15:02:34.941Z,0.90
2023-05-02T15:05:03.270Z,1.50
2023-05-02T15:07:30.909Z,0.93
2023-05-02T15:09:58.478Z,1.75
2023-05-02T15:12:26.544Z,1.45
2023-05-02T15:14:54.040Z,1.60
2023-05-02T15:17:21.728Z,1.98
2023-05-02T15:19:49.152Z,1.75
2023-05-02T15:22:18.359Z,1.63
2023-05-02T15:24:46.196Z,1.75
2023-05-02T15:27:13.972Z,1.23
2023-05-02T15:29:41.438Z,1.48
2023-05-02T15:32:08.922Z,1.50
2023-05-02T15:34:36.577Z,2.13
2023-05-02T15:37:04.027Z,2.05
2023-05-02T15:39:31.666Z,3.38
2023-05-02T15:42:04.963Z,2.40
2023-05-02T15:44:39.365Z,2.20
2023-05-02T15:47:06.573Z,2.30
2023-05-02T15:49:35.002Z,2.15
2023-05-02T15:52:03.638Z,1.73
2023-05-02T15:54:33.979Z,1.13
2023-05-02T15:57:02.773Z,2.40
2023-05-02T15:59:30.190Z,2.30
2023-05-02T16:01:57.702Z,2.10
2023-05-02T16:04:25.500Z,1.85
2023-05-02T16:06:52.932Z,1.42
2023-05-02T16:09:22.137Z,1.92
2023-05-02T16:11:49.524Z,1.35
2023-05-02T16:14:17.382Z,1.73
2023-05-02T16:16:44.833Z,1.90
2023-05-02T16:19:13.727Z,1.10
2023-05-02T16:21:42.413Z,1.20
2023-05-02T16:24:10.168Z,1.20
2023-05-02T16:26:37.518Z,1.38
2023-05-02T16:29:04.897Z,1.23
2023-05-02T16:31:32.180Z,1.35
2023-05-02T16:33:59.670Z,2.10
2023-05-02T16:36:30.119Z,1.73
2023-05-02T16:38:57.544Z,1.48
2023-05-02T16:41:24.725Z,1.80
2023-05-02T16:43:51.782Z,1.65
2023-05-02T16:46:19.932Z,1.58
2023-05-02T16:48:47.442Z,1.45
2023-05-02T16:51:15.458Z,1.52
2023-05-02T16:53:44.050Z,1.63
2023-05-02T16:56:11.561Z,1.50
2023-05-02T16:58:38.819Z,1.63
2023-05-02T17:01:06.053Z,1.40
2023-05-02T17:03:33.754Z,1.55
2023-05-02T17:06:05.071Z,1.15
2023-05-02T17:08:33.406Z,1.30
2023-05-02T17:11:00.695Z,1.30
2023-05-02T17:13:28.249Z,1.35
2023-05-02T17:15:55.955Z,1.40
2023-05-02T17:18:24.579Z,1.20
2023-05-02T17:20:54.978Z,1.38
2023-05-02T17:23:22.767Z,1.38
2023-05-02T17:25:51.189Z,1.20
2023-05-02T17:28:18.351Z,1.60
2023-05-02T17:30:46.493Z,1.80
2023-05-02T17:33:13.977Z,1.40
2023-05-02T17:35:41.431Z,1.15
2023-05-02T17:38:09.096Z,1.30
2023-05-02T17:40:38.157Z,1.23
2023-05-02T17:43:05.916Z,1.42
2023-05-02T17:45:33.950Z,1.30
2023-05-02T17:48:03.799Z,1.35
2023-05-02T17:50:36.462Z,1.80
2023-05-02T17:53:05.020Z,1.95
2023-05-02T17:55:35.915Z,1.55
2023-05-02T17:58:04.441Z,1.50
2023-05-02T18:00:32.084Z,2.20
2023-05-02T18:03:00.108Z,1.33
2023-05-02T18:05:28.240Z,1.20
2023-05-02T18:07:56.269Z,1.40
2023-05-02T18:10:23.818Z,1.73
2023-05-02T18:12:51.554Z,1.55
2023-05-02T18:15:18.911Z,1.77
2023-05-02T18:17:46.112Z,1.80
2023-05-02T18:20:14.527Z,1.98
2023-05-02T18:22:41.695Z,2.45
2023-05-02T18:25:10.023Z,2.00
2023-05-02T18:27:37.400Z,1.95
2023-05-02T18:30:05.470Z,2.10
2023-05-02T18:32:36.761Z,1.88
2023-05-02T18:35:09.477Z,2.10
2023-05-02T18:37:37.140Z,1.92
2023-05-02T18:40:05.052Z,2.67
2023-05-02T18:42:32.679Z,1.90
2023-05-02T18:45:01.065Z,2.05
2023-05-02T18:47:31.336Z,2.95
2023-05-02T18:49:59.788Z,3.20
2023-05-02T18:52:29.272Z,2.63
2023-05-02T18:54:56.808Z,2.85
2023-05-02T18:57:24.672Z,3.22
2023-05-02T18:59:52.203Z,3.30
2023-05-02T19:02:19.441Z,2.88
2023-05-02T19:04:47.101Z,3.20
2023-05-02T19:07:14.747Z,2.90
2023-05-02T19:09:42.607Z,3.40
2023-05-02T19:12:10.025Z,2.70
2023-05-02T19:14:39.890Z,2.83
2023-05-02T19:17:08.293Z,2.92
2023-05-02T19:19:35.991Z,2.95
2023-05-02T19:22:06.308Z,3.00
2023-05-02T19:24:35.676Z,3.28
2023-05-02T19:27:17.770Z,2.70
2023-05-02T19:29:45.270Z,3.55
2023-05-02T19:32:12.919Z,3.00
2023-05-02T19:34:40.084Z,2.88
2023-05-02T19:37:08.152Z,2.97
2023-05-02T19:39:35.905Z,3.03
2023-05-02T19:42:03.499Z,3.00
2023-05-02T19:44:30.933Z,3.10
2023-05-02T19:46:58.289Z,3.15
2023-05-02T19:49:28.042Z,3.17
2023-05-02T19:51:55.451Z,3.05
2023-05-02T19:54:23.040Z,3.17
2023-05-02T19:56:50.740Z,3.22
2023-05-02T19:59:18.180Z,2.97
2023-05-02T20:01:47.025Z,3.30
2023-05-02T20:04:14.685Z,2.97
2023-05-02T20:06:42.166Z,3.70
2023-05-02T20:09:10.058Z,2.97
2023-05-02T20:11:37.531Z,3.30
2023-05-02T20:14:05.188Z,3.53
2023-05-02T20:16:33.073Z,3.80
2023-05-02T20:19:00.470Z,3.22
2023-05-02T20:21:27.547Z,3.33
2023-05-02T20:23:55.143Z,3.50
2023-05-02T20:26:23.185Z,2.47
2023-05-02T20:28:51.432Z,3.03
2023-05-02T20:31:19.006Z,3.30
2023-05-02T20:33:54.234Z,3.25
2023-05-02T20:36:23.827Z,3.13
2023-05-02T20:38:51.510Z,3.40
2023-05-02T20:41:18.986Z,3.05
2023-05-02T20:43:47.494Z,3.42
2023-05-02T20:46:19.355Z,3.30
2023-05-02T20:48:48.189Z,3.80
2023-05-02T20:51:21.646Z,3.42
2023-05-02T20:53:52.487Z,2.83
2023-05-02T20:56:20.278Z,2.70
2023-05-02T20:58:47.390Z,2.47
2023-05-02T21:01:26.939Z,2.28
2023-05-02T21:03:55.484Z,2.92
2023-05-02T21:06:23.163Z,2.95
2023-05-02T21:08:51.310Z,2.88
2023-05-02T21:11:18.860Z,2.40
2023-05-02T21:13:45.861Z,3.25
2023-05-02T21:16:17.755Z,2.80
2023-05-02T21:18:46.536Z,2.70
2023-05-02T21:21:13.905Z,2.85
2023-05-02T21:23:41.135Z,3.50
2023-05-02T21:26:08.882Z,3.10
2023-05-02T21:28:36.230Z,3.15
2023-05-02T21:31:04.185Z,3.30
2023-05-02T21:33:31.856Z,3.22
2023-05-02T21:35:59.867Z,3.17
2023-05-02T21:38:27.735Z,3.20
2023-05-02T21:40:54.985Z,2.92
2023-05-02T21:43:22.397Z,3.10
2023-05-02T21:45:51.227Z,3.42
2023-05-02T21:48:19.432Z,3.40
2023-05-02T21:50:47.090Z,3.00
2023-05-02T21:53:14.718Z,3.00
2023-05-02T21:55:42.599Z,2.42
2023-05-02T21:58:11.484Z,2.95
2023-05-02T22:00:39.927Z,3.45
2023-05-02T22:03:10.758Z,2.20
2023-05-02T22:05:42.182Z,3.17
2023-05-02T22:08:15.839Z,3.47
2023-05-02T22:10:43.767Z,3.00
2023-05-02T22:13:12.789Z,2.92
2023-05-02T22:15:43.389Z,2.72
2023-05-02T22:18:10.791Z,2.40
2023-05-02T22:20:38.418Z,3.20
2023-05-02T22:23:06.558Z,2.33
2023-05-02T22:25:36.013Z,3.47
2023-05-02T22:28:07.137Z,3.05
2023-05-02T22:30:36.654Z,3.40
2023-05-02T22:33:04.306Z,3.33
2023-05-02T22:35:31.559Z,3.67
2023-05-02T22:38:00.429Z,3.33
2023-05-02T22:40:30.355Z,3.92
2023-05-02T22:42:58.543Z,4.07
2023-05-02T22:45:27.125Z,3.58
2023-05-02T22:47:54.862Z,3.08
2023-05-02T22:50:22.661Z,3.53
2023-05-02T22:52:57.287Z,4.00
2023-05-02T22:55:24.963Z,3.80
2023-05-02T22:57:52.584Z,3.70
2023-05-02T23:00:20.145Z,3.55
2023-05-02T23:02:47.385Z,3.85
2023-05-02T23:05:14.671Z,4.25
2023-05-02T23:07:41.795Z,3.47
2023-05-02T23:10:09.786Z,3.35
2023-05-02T23:12:36.944Z,3.65
2023-05-02T23:15:05.039Z,4.05
2023-05-02T23:17:32.661Z,3.80
2023-05-02T23:20:00.462Z,3.33
2023-05-02T23:22:27.970Z,3.42
2023-05-02T23:24:55.559Z,3.75
2023-05-02T23:27:23.026Z,3.55
2023-05-02T23:29:50.689Z,3.90
2023-05-02T23:32:17.964Z,3.83
2023-05-02T23:34:45.927Z,3.85
2023-05-02T23:37:14.457Z,4.53
2023-05-02T23:39:41.918Z,3.80
2023-05-02T23:42:09.382Z,3.85
2023-05-02T23:44:36.722Z,4.20
2023-05-02T23:47:04.510Z,3.90
2023-05-02T23:49:31.897Z,4.57
2023-05-02T23:51:59.010Z,3.90
2023-05-02T23:54:26.692Z,4.13
2023-05-02T23:56:53.928Z,4.38
2023-05-02T23:59:21.364Z,4.43
